sensor_id;sensor_type;location;lat;lon;timestamp;P1;durP1;ratioP1;P2;durP2;ratioP2
61635;SDS011;59438;45.014;39.006;2023-05-16T00:01:49;7.10;;;2.80;;
61635;SDS011;59438;45.014;39.006;2023-05-16T00:04:16;6.50;;;2.70;;
61635;SDS011;59438;45.014;39.006;2023-05-16T00:06:43;4.60;;;2.67;;
61635;SDS011;59438;45.014;39.006;2023-05-16T00:09:10;5.05;;;2.65;;
61635;SDS011;59438;45.014;39.006;2023-05-16T00:11:36;4.43;;;3.00;;
61635;SDS011;59438;45.014;39.006;2023-05-16T00:14:02;8.68;;;3.40;;
61635;SDS011;59438;45.014;39.006;2023-05-16T00:16:29;6.05;;;2.80;;
61635;SDS011;59438;45.014;39.006;2023-05-16T00:18:55;9.27;;;3.40;;
61635;SDS011;59438;45.014;39.006;2023-05-16T00:21:22;6.68;;;2.78;;
61635;SDS011;59438;45.014;39.006;2023-05-16T00:23:50;6.53;;;3.00;;
61635;SDS011;59438;45.014;39.006;2023-05-16T00:26:16;6.75;;;3.20;;
61635;SDS011;59438;45.014;39.006;2023-05-16T00:28:42;5.30;;;3.03;;
61635;SDS011;59438;45.014;39.006;2023-05-16T00:31:09;8.75;;;3.25;;
61635;SDS011;59438;45.014;39.006;2023-05-16T00:33:35;5.35;;;3.17;;
61635;SDS011;59438;45.014;39.006;2023-05-16T00:36:02;7.85;;;3.15;;
61635;SDS011;59438;45.014;39.006;2023-05-16T00:38:28;5.63;;;3.00;;
61635;SDS011;59438;45.014;39.006;2023-05-16T00:40:56;3.85;;;2.85;;
61635;SDS011;59438;45.014;39.006;2023-05-16T00:43:22;4.18;;;3.15;;
61635;SDS011;59438;45.014;39.006;2023-05-16T00:45:49;5.50;;;3.22;;
61635;SDS011;59438;45.014;39.006;2023-05-16T00:48:15;5.93;;;3.40;;
61635;SDS011;59438;45.014;39.006;2023-05-16T00:50:42;5.60;;;3.38;;
61635;SDS011;59438;45.014;39.006;2023-05-16T00:53:09;6.28;;;3.20;;
61635;SDS011;59438;45.014;39.006;2023-05-16T00:55:36;8.82;;;3.53;;
61635;SDS011;59438;45.014;39.006;2023-05-16T00:58:05;9.07;;;3.72;;
61635;SDS011;59438;45.014;39.006;2023-05-16T01:00:31;5.57;;;3.17;;
61635;SDS011;59438;45.014;39.006;2023-05-16T01:02:58;5.60;;;3.55;;
61635;SDS011;59438;45.014;39.006;2023-05-16T01:05:24;6.45;;;3.97;;
61635;SDS011;59438;45.014;39.006;2023-05-16T01:07:51;7.20;;;3.67;;
61635;SDS011;59438;45.014;39.006;2023-05-16T01:10:17;6.63;;;3.40;;
61635;SDS011;59438;45.014;39.006;2023-05-16T01:12:44;6.97;;;3.42;;
61635;SDS011;59438;45.014;39.006;2023-05-16T01:15:23;8.75;;;3.75;;
61635;SDS011;59438;45.014;39.006;2023-05-16T01:17:54;6.53;;;4.07;;
61635;SDS011;59438;45.014;39.006;2023-05-16T01:20:29;12.50;;;3.83;;
61635;SDS011;59438;45.014;39.006;2023-05-16T01:23:14;9.40;;;3.80;;
61635;SDS011;59438;45.014;39.006;2023-05-16T01:25:54;8.80;;;4.13;;
61635;SDS011;59438;45.014;39.006;2023-05-16T01:28:24;5.93;;;4.00;;
61635;SDS011;59438;45.014;39.006;2023-05-16T01:30:51;5.78;;;3.72;;
61635;SDS011;59438;45.014;39.006;2023-05-16T01:33:18;8.25;;;3.92;;
61635;SDS011;59438;45.014;39.006;2023-05-16T01:35:46;8.43;;;4.13;;
61635;SDS011;59438;45.014;39.006;2023-05-16T01:38:24;10.20;;;3.88;;
61635;SDS011;59438;45.014;39.006;2023-05-16T01:40:52;8.93;;;4.20;;
61635;SDS011;59438;45.014;39.006;2023-05-16T01:43:28;7.00;;;3.90;;
61635;SDS011;59438;45.014;39.006;2023-05-16T01:45:59;5.93;;;3.58;;
61635;SDS011;59438;45.014;39.006;2023-05-16T01:48:34;6.47;;;3.83;;
61635;SDS011;59438;45.014;39.006;2023-05-16T01:51:04;6.38;;;3.90;;
61635;SDS011;59438;45.014;39.006;2023-05-16T01:53:35;8.15;;;3.90;;
61635;SDS011;59438;45.014;39.006;2023-05-16T01:56:03;10.50;;;4.40;;
61635;SDS011;59438;45.014;39.006;2023-05-16T01:58:35;7.43;;;4.28;;
61635;SDS011;59438;45.014;39.006;2023-05-16T02:01:03;7.93;;;4.32;;
61635;SDS011;59438;45.014;39.006;2023-05-16T02:03:30;9.85;;;4.40;;
61635;SDS011;59438;45.014;39.006;2023-05-16T02:05:57;6.10;;;4.10;;
61635;SDS011;59438;45.014;39.006;2023-05-16T02:08:23;7.80;;;3.80;;
61635;SDS011;59438;45.014;39.006;2023-05-16T02:10:50;6.32;;;4.07;;
61635;SDS011;59438;45.014;39.006;2023-05-16T02:13:16;8.20;;;3.97;;
61635;SDS011;59438;45.014;39.006;2023-05-16T02:15:44;9.68;;;4.20;;
61635;SDS011;59438;45.014;39.006;2023-05-16T02:18:11;6.57;;;5.10;;
61635;SDS011;59438;45.014;39.006;2023-05-16T02:20:37;6.70;;;3.88;;
61635;SDS011;59438;45.014;39.006;2023-05-16T02:23:03;7.97;;;4.07;;
61635;SDS011;59438;45.014;39.006;2023-05-16T02:25:30;7.97;;;4.15;;
61635;SDS011;59438;45.014;39.006;2023-05-16T02:27:56;10.98;;;4.43;;
61635;SDS011;59438;45.014;39.006;2023-05-16T02:30:22;10.35;;;4.25;;
61635;SDS011;59438;45.014;39.006;2023-05-16T02:32:50;8.60;;;4.72;;
61635;SDS011;59438;45.014;39.006;2023-05-16T02:35:17;7.40;;;4.65;;
61635;SDS011;59438;45.014;39.006;2023-05-16T02:37:43;6.40;;;4.20;;
61635;SDS011;59438;45.014;39.006;2023-05-16T02:40:09;10.07;;;4.00;;
61635;SDS011;59438;45.014;39.006;2023-05-16T02:42:36;12.35;;;4.53;;
61635;SDS011;59438;45.014;39.006;2023-05-16T02:45:03;11.45;;;4.63;;
61635;SDS011;59438;45.014;39.006;2023-05-16T02:47:30;9.65;;;4.30;;
61635;SDS011;59438;45.014;39.006;2023-05-16T02:49:58;9.10;;;4.10;;
61635;SDS011;59438;45.014;39.006;2023-05-16T02:52:24;12.63;;;5.05;;
61635;SDS011;59438;45.014;39.006;2023-05-16T02:54:50;11.15;;;4.15;;
61635;SDS011;59438;45.014;39.006;2023-05-16T02:57:17;9.68;;;4.95;;
61635;SDS011;59438;45.014;39.006;2023-05-16T02:59:43;11.40;;;4.60;;
61635;SDS011;59438;45.014;39.006;2023-05-16T03:02:09;7.18;;;4.05;;
61635;SDS011;59438;45.014;39.006;2023-05-16T03:04:36;9.20;;;4.65;;
61635;SDS011;59438;45.014;39.006;2023-05-16T03:07:03;9.60;;;4.30;;
61635;SDS011;59438;45.014;39.006;2023-05-16T03:09:30;10.82;;;5.20;;
61635;SDS011;59438;45.014;39.006;2023-05-16T03:11:56;11.82;;;5.20;;
61635;SDS011;59438;45.014;39.006;2023-05-16T03:14:22;8.27;;;4.53;;
61635;SDS011;59438;45.014;39.006;2023-05-16T03:16:49;9.57;;;5.10;;
61635;SDS011;59438;45.014;39.006;2023-05-16T03:19:15;9.13;;;5.10;;
61635;SDS011;59438;45.014;39.006;2023-05-16T03:21:42;10.55;;;5.00;;
61635;SDS011;59438;45.014;39.006;2023-05-16T03:24:09;9.43;;;4.53;;
61635;SDS011;59438;45.014;39.006;2023-05-16T03:26:36;10.95;;;4.88;;
61635;SDS011;59438;45.014;39.006;2023-05-16T03:29:02;9.52;;;4.95;;
61635;SDS011;59438;45.014;39.006;2023-05-16T03:31:28;10.68;;;4.88;;
61635;SDS011;59438;45.014;39.006;2023-05-16T03:33:56;17.42;;;4.50;;
61635;SDS011;59438;45.014;39.006;2023-05-16T03:36:22;10.35;;;5.13;;
61635;SDS011;59438;45.014;39.006;2023-05-16T03:38:49;9.68;;;4.95;;
61635;SDS011;59438;45.014;39.006;2023-05-16T03:41:17;16.00;;;5.10;;
61635;SDS011;59438;45.014;39.006;2023-05-16T03:43:43;8.85;;;4.70;;
61635;SDS011;59438;45.014;39.006;2023-05-16T03:46:09;17.13;;;5.00;;
61635;SDS011;59438;45.014;39.006;2023-05-16T03:48:36;13.68;;;5.07;;
61635;SDS011;59438;45.014;39.006;2023-05-16T03:51:02;14.70;;;5.35;;
61635;SDS011;59438;45.014;39.006;2023-05-16T03:53:28;10.52;;;5.28;;
61635;SDS011;59438;45.014;39.006;2023-05-16T03:55:55;12.93;;;5.18;;
61635;SDS011;59438;45.014;39.006;2023-05-16T03:58:22;24.27;;;6.03;;
61635;SDS011;59438;45.014;39.006;2023-05-16T04:00:49;15.57;;;5.07;;
61635;SDS011;59438;45.014;39.006;2023-05-16T04:03:15;13.25;;;5.10;;
61635;SDS011;59438;45.014;39.006;2023-05-16T04:05:41;11.90;;;5.15;;
61635;SDS011;59438;45.014;39.006;2023-05-16T04:08:08;17.35;;;5.18;;
61635;SDS011;59438;45.014;39.006;2023-05-16T04:10:34;10.27;;;4.45;;
61635;SDS011;59438;45.014;39.006;2023-05-16T04:13:00;18.00;;;5.22;;
61635;SDS011;59438;45.014;39.006;2023-05-16T04:15:28;8.18;;;4.85;;
61635;SDS011;59438;45.014;39.006;2023-05-16T04:17:55;12.55;;;4.82;;
61635;SDS011;59438;45.014;39.006;2023-05-16T04:20:21;17.67;;;4.97;;
61635;SDS011;59438;45.014;39.006;2023-05-16T04:22:47;15.40;;;4.65;;
61635;SDS011;59438;45.014;39.006;2023-05-16T04:25:14;14.50;;;4.50;;
61635;SDS011;59438;45.014;39.006;2023-05-16T04:27:40;13.60;;;5.03;;
61635;SDS011;59438;45.014;39.006;2023-05-16T04:30:07;13.57;;;4.70;;
61635;SDS011;59438;45.014;39.006;2023-05-16T04:32:36;13.70;;;4.78;;
61635;SDS011;59438;45.014;39.006;2023-05-16T04:35:02;16.75;;;5.18;;
61635;SDS011;59438;45.014;39.006;2023-05-16T04:37:28;12.32;;;4.95;;
61635;SDS011;59438;45.014;39.006;2023-05-16T04:39:55;15.05;;;5.30;;
61635;SDS011;59438;45.014;39.006;2023-05-16T04:42:21;14.55;;;5.40;;
61635;SDS011;59438;45.014;39.006;2023-05-16T04:44:48;11.30;;;5.25;;
61635;SDS011;59438;45.014;39.006;2023-05-16T04:47:14;10.00;;;5.13;;
61635;SDS011;59438;45.014;39.006;2023-05-16T04:49:42;11.85;;;5.40;;
61635;SDS011;59438;45.014;39.006;2023-05-16T04:52:08;11.52;;;5.15;;
61635;SDS011;59438;45.014;39.006;2023-05-16T04:54:35;19.55;;;8.63;;
61635;SDS011;59438;45.014;39.006;2023-05-16T04:57:02;13.93;;;6.10;;
61635;SDS011;59438;45.014;39.006;2023-05-16T04:59:29;11.27;;;4.57;;
61635;SDS011;59438;45.014;39.006;2023-05-16T05:01:55;13.70;;;4.95;;
61635;SDS011;59438;45.014;39.006;2023-05-16T05:04:22;14.00;;;4.90;;
61635;SDS011;59438;45.014;39.006;2023-05-16T05:06:50;15.23;;;5.28;;
61635;SDS011;59438;45.014;39.006;2023-05-16T05:09:16;12.43;;;4.93;;
61635;SDS011;59438;45.014;39.006;2023-05-16T05:11:43;14.23;;;5.20;;
61635;SDS011;59438;45.014;39.006;2023-05-16T05:14:09;12.30;;;4.95;;
61635;SDS011;59438;45.014;39.006;2023-05-16T05:16:35;14.07;;;5.32;;
61635;SDS011;59438;45.014;39.006;2023-05-16T05:19:02;11.60;;;5.53;;
61635;SDS011;59438;45.014;39.006;2023-05-16T05:21:28;12.60;;;5.60;;
61635;SDS011;59438;45.014;39.006;2023-05-16T05:23:56;12.07;;;5.07;;
61635;SDS011;59438;45.014;39.006;2023-05-16T05:26:22;11.25;;;4.95;;
61635;SDS011;59438;45.014;39.006;2023-05-16T05:28:49;14.50;;;4.97;;
61635;SDS011;59438;45.014;39.006;2023-05-16T05:31:15;13.63;;;4.65;;
61635;SDS011;59438;45.014;39.006;2023-05-16T05:33:41;7.97;;;4.88;;
61635;SDS011;59438;45.014;39.006;2023-05-16T05:36:08;11.57;;;5.10;;
61635;SDS011;59438;45.014;39.006;2023-05-16T05:38:34;16.20;;;4.95;;
61635;SDS011;59438;45.014;39.006;2023-05-16T05:41:02;11.85;;;4.32;;
61635;SDS011;59438;45.014;39.006;2023-05-16T05:43:28;15.18;;;5.30;;
61635;SDS011;59438;45.014;39.006;2023-05-16T05:45:55;19.92;;;4.50;;
61635;SDS011;59438;45.014;39.006;2023-05-16T05:48:21;10.48;;;4.60;;
61635;SDS011;59438;45.014;39.006;2023-05-16T05:50:47;13.65;;;4.47;;
61635;SDS011;59438;45.014;39.006;2023-05-16T05:53:14;11.95;;;5.13;;
61635;SDS011;59438;45.014;39.006;2023-05-16T05:55:40;11.40;;;4.93;;
61635;SDS011;59438;45.014;39.006;2023-05-16T05:58:08;13.30;;;4.72;;
61635;SDS011;59438;45.014;39.006;2023-05-16T06:00:34;12.45;;;5.25;;
61635;SDS011;59438;45.014;39.006;2023-05-16T06:03:01;12.93;;;4.85;;
61635;SDS011;59438;45.014;39.006;2023-05-16T06:05:27;11.43;;;4.88;;
61635;SDS011;59438;45.014;39.006;2023-05-16T06:07:53;8.30;;;4.68;;
61635;SDS011;59438;45.014;39.006;2023-05-16T06:10:20;9.73;;;4.60;;
61635;SDS011;59438;45.014;39.006;2023-05-16T06:12:46;12.18;;;5.63;;
61635;SDS011;59438;45.014;39.006;2023-05-16T06:15:14;13.40;;;4.60;;
61635;SDS011;59438;45.014;39.006;2023-05-16T06:17:40;11.07;;;4.35;;
61635;SDS011;59438;45.014;39.006;2023-05-16T06:20:07;9.95;;;4.63;;
61635;SDS011;59438;45.014;39.006;2023-05-16T06:22:34;12.85;;;5.97;;
61635;SDS011;59438;45.014;39.006;2023-05-16T06:25:00;16.38;;;7.88;;
61635;SDS011;59438;45.014;39.006;2023-05-16T06:27:26;17.50;;;7.65;;
61635;SDS011;59438;45.014;39.006;2023-05-16T06:29:53;28.20;;;10.43;;
61635;SDS011;59438;45.014;39.006;2023-05-16T06:32:21;29.65;;;10.50;;
61635;SDS011;59438;45.014;39.006;2023-05-16T06:34:47;22.83;;;10.18;;
61635;SDS011;59438;45.014;39.006;2023-05-16T06:37:13;18.35;;;8.88;;
61635;SDS011;59438;45.014;39.006;2023-05-16T06:39:40;18.58;;;8.93;;
61635;SDS011;59438;45.014;39.006;2023-05-16T06:42:06;13.60;;;6.70;;
61635;SDS011;59438;45.014;39.006;2023-05-16T06:44:32;18.85;;;8.13;;
61635;SDS011;59438;45.014;39.006;2023-05-16T06:46:59;15.95;;;7.72;;
61635;SDS011;59438;45.014;39.006;2023-05-16T06:49:26;16.92;;;7.80;;
61635;SDS011;59438;45.014;39.006;2023-05-16T06:51:53;22.48;;;7.60;;
61635;SDS011;59438;45.014;39.006;2023-05-16T06:54:19;13.20;;;7.35;;
61635;SDS011;59438;45.014;39.006;2023-05-16T06:56:45;13.32;;;6.97;;
61635;SDS011;59438;45.014;39.006;2023-05-16T06:59:12;25.13;;;7.03;;
61635;SDS011;59438;45.014;39.006;2023-05-16T07:01:38;12.30;;;6.65;;
61635;SDS011;59438;45.014;39.006;2023-05-16T07:04:04;12.35;;;5.65;;
61635;SDS011;59438;45.014;39.006;2023-05-16T07:06:32;12.57;;;5.43;;
61635;SDS011;59438;45.014;39.006;2023-05-16T07:08:58;18.23;;;5.35;;
61635;SDS011;59438;45.014;39.006;2023-05-16T07:11:25;14.38;;;5.30;;
61635;SDS011;59438;45.014;39.006;2023-05-16T07:13:51;8.45;;;4.90;;
61635;SDS011;59438;45.014;39.006;2023-05-16T07:16:17;14.15;;;4.65;;
61635;SDS011;59438;45.014;39.006;2023-05-16T07:18:44;15.65;;;4.88;;
61635;SDS011;59438;45.014;39.006;2023-05-16T07:21:10;9.13;;;4.35;;
61635;SDS011;59438;45.014;39.006;2023-05-16T07:23:38;9.80;;;4.60;;
61635;SDS011;59438;45.014;39.006;2023-05-16T07:26:05;16.67;;;4.93;;
61635;SDS011;59438;45.014;39.006;2023-05-16T07:28:32;12.52;;;4.55;;
61635;SDS011;59438;45.014;39.006;2023-05-16T07:30:58;10.25;;;4.32;;
61635;SDS011;59438;45.014;39.006;2023-05-16T07:33:24;10.15;;;3.92;;
61635;SDS011;59438;45.014;39.006;2023-05-16T07:35:51;17.30;;;4.60;;
61635;SDS011;59438;45.014;39.006;2023-05-16T07:38:17;23.27;;;4.50;;
61635;SDS011;59438;45.014;39.006;2023-05-16T07:40:45;7.75;;;3.88;;
61635;SDS011;59438;45.014;39.006;2023-05-16T07:43:12;8.70;;;3.88;;
61635;SDS011;59438;45.014;39.006;2023-05-16T07:45:38;9.00;;;3.80;;
61635;SDS011;59438;45.014;39.006;2023-05-16T07:48:04;7.25;;;3.90;;
61635;SDS011;59438;45.014;39.006;2023-05-16T07:50:31;10.32;;;3.70;;
61635;SDS011;59438;45.014;39.006;2023-05-16T07:52:57;8.98;;;3.65;;
61635;SDS011;59438;45.014;39.006;2023-05-16T07:55:24;12.05;;;3.70;;
61635;SDS011;59438;45.014;39.006;2023-05-16T07:57:51;10.98;;;3.97;;
61635;SDS011;59438;45.014;39.006;2023-05-16T08:00:19;8.82;;;3.60;;
61635;SDS011;59438;45.014;39.006;2023-05-16T08:02:45;7.97;;;3.90;;
61635;SDS011;59438;45.014;39.006;2023-05-16T08:05:12;9.88;;;3.63;;
61635;SDS011;59438;45.014;39.006;2023-05-16T08:07:38;5.80;;;3.45;;
61635;SDS011;59438;45.014;39.006;2023-05-16T08:10:05;6.70;;;3.60;;
61635;SDS011;59438;45.014;39.006;2023-05-16T08:12:32;8.50;;;3.30;;
61635;SDS011;59438;45.014;39.006;2023-05-16T08:15:00;5.65;;;3.40;;
61635;SDS011;59438;45.014;39.006;2023-05-16T08:17:26;9.02;;;3.38;;
61635;SDS011;59438;45.014;39.006;2023-05-16T08:19:52;17.50;;;3.30;;
61635;SDS011;59438;45.014;39.006;2023-05-16T08:22:19;9.77;;;3.28;;
61635;SDS011;59438;45.014;39.006;2023-05-16T08:24:45;7.50;;;2.90;;
61635;SDS011;59438;45.014;39.006;2023-05-16T08:27:11;8.25;;;3.10;;
61635;SDS011;59438;45.014;39.006;2023-05-16T08:29:38;6.30;;;2.88;;
61635;SDS011;59438;45.014;39.006;2023-05-16T08:32:07;11.38;;;3.30;;
61635;SDS011;59438;45.014;39.006;2023-05-16T08:34:33;14.27;;;3.65;;
61635;SDS011;59438;45.014;39.006;2023-05-16T08:37:00;5.47;;;3.33;;
61635;SDS011;59438;45.014;39.006;2023-05-16T08:39:26;7.13;;;3.22;;
61635;SDS011;59438;45.014;39.006;2023-05-16T08:41:52;10.07;;;3.45;;
61635;SDS011;59438;45.014;39.006;2023-05-16T08:44:19;11.10;;;3.30;;
61635;SDS011;59438;45.014;39.006;2023-05-16T08:46:47;9.48;;;3.15;;
61635;SDS011;59438;45.014;39.006;2023-05-16T08:49:17;9.07;;;3.08;;
61635;SDS011;59438;45.014;39.006;2023-05-16T08:51:45;7.25;;;3.05;;
61635;SDS011;59438;45.014;39.006;2023-05-16T08:54:14;12.50;;;3.15;;
61635;SDS011;59438;45.014;39.006;2023-05-16T08:56:40;7.03;;;3.20;;
61635;SDS011;59438;45.014;39.006;2023-05-16T08:59:09;7.82;;;3.13;;
61635;SDS011;59438;45.014;39.006;2023-05-16T09:01:36;10.93;;;3.17;;
61635;SDS011;59438;45.014;39.006;2023-05-16T09:04:05;10.77;;;3.60;;
61635;SDS011;59438;45.014;39.006;2023-05-16T09:06:34;7.40;;;3.08;;
61635;SDS011;59438;45.014;39.006;2023-05-16T09:09:00;6.60;;;3.38;;
61635;SDS011;59438;45.014;39.006;2023-05-16T09:11:27;7.93;;;3.13;;
61635;SDS011;59438;45.014;39.006;2023-05-16T09:13:53;7.50;;;3.15;;
61635;SDS011;59438;45.014;39.006;2023-05-16T09:16:20;7.78;;;3.38;;
61635;SDS011;59438;45.014;39.006;2023-05-16T09:18:52;5.80;;;2.78;;
61635;SDS011;59438;45.014;39.006;2023-05-16T09:21:19;10.95;;;3.08;;
61635;SDS011;59438;45.014;39.006;2023-05-16T09:23:48;8.82;;;3.38;;
61635;SDS011;59438;45.014;39.006;2023-05-16T09:26:15;7.80;;;3.15;;
61635;SDS011;59438;45.014;39.006;2023-05-16T09:28:41;9.77;;;2.90;;
61635;SDS011;59438;45.014;39.006;2023-05-16T09:31:18;11.43;;;2.83;;
61635;SDS011;59438;45.014;39.006;2023-05-16T09:33:45;11.57;;;3.03;;
61635;SDS011;59438;45.014;39.006;2023-05-16T09:36:12;5.22;;;2.50;;
61635;SDS011;59438;45.014;39.006;2023-05-16T09:38:38;7.38;;;2.47;;
61635;SDS011;59438;45.014;39.006;2023-05-16T09:41:06;7.75;;;3.05;;
61635;SDS011;59438;45.014;39.006;2023-05-16T09:43:36;6.57;;;2.80;;
61635;SDS011;59438;45.014;39.006;2023-05-16T09:46:03;3.78;;;2.47;;
61635;SDS011;59438;45.014;39.006;2023-05-16T09:48:30;5.35;;;2.83;;
61635;SDS011;59438;45.014;39.006;2023-05-16T09:50:57;5.90;;;2.78;;
61635;SDS011;59438;45.014;39.006;2023-05-16T09:53:24;5.07;;;2.70;;
61635;SDS011;59438;45.014;39.006;2023-05-16T09:55:58;12.23;;;2.70;;
61635;SDS011;59438;45.014;39.006;2023-05-16T09:58:28;6.90;;;2.63;;
61635;SDS011;59438;45.014;39.006;2023-05-16T10:00:56;6.65;;;2.50;;
61635;SDS011;59438;45.014;39.006;2023-05-16T10:03:23;10.10;;;3.15;;
61635;SDS011;59438;45.014;39.006;2023-05-16T10:05:50;15.45;;;3.30;;
61635;SDS011;59438;45.014;39.006;2023-05-16T10:08:18;10.25;;;2.97;;
61635;SDS011;59438;45.014;39.006;2023-05-16T10:10:46;16.15;;;2.90;;
61635;SDS011;59438;45.014;39.006;2023-05-16T10:13:16;8.48;;;3.05;;
61635;SDS011;59438;45.014;39.006;2023-05-16T10:15:45;9.50;;;2.70;;
61635;SDS011;59438;45.014;39.006;2023-05-16T10:18:13;7.15;;;2.55;;
61635;SDS011;59438;45.014;39.006;2023-05-16T10:20:41;4.15;;;2.60;;
61635;SDS011;59438;45.014;39.006;2023-05-16T10:23:11;8.82;;;2.70;;
61635;SDS011;59438;45.014;39.006;2023-05-16T10:25:41;7.07;;;2.92;;
61635;SDS011;59438;45.014;39.006;2023-05-16T10:28:09;5.63;;;2.67;;
61635;SDS011;59438;45.014;39.006;2023-05-16T10:30:36;7.43;;;2.72;;
61635;SDS011;59438;45.014;39.006;2023-05-16T10:33:07;7.47;;;2.60;;
61635;SDS011;59438;45.014;39.006;2023-05-16T10:35:34;6.20;;;3.13;;
61635;SDS011;59438;45.014;39.006;2023-05-16T10:38:00;7.00;;;2.85;;
61635;SDS011;59438;45.014;39.006;2023-05-16T10:40:27;13.15;;;3.00;;
61635;SDS011;59438;45.014;39.006;2023-05-16T10:42:55;7.32;;;2.40;;
61635;SDS011;59438;45.014;39.006;2023-05-16T10:45:22;9.57;;;2.60;;
61635;SDS011;59438;45.014;39.006;2023-05-16T10:47:52;12.32;;;2.92;;
61635;SDS011;59438;45.014;39.006;2023-05-16T10:50:34;9.32;;;2.67;;
61635;SDS011;59438;45.014;39.006;2023-05-16T10:53:14;7.50;;;2.40;;
61635;SDS011;59438;45.014;39.006;2023-05-16T10:55:49;7.55;;;2.75;;
61635;SDS011;59438;45.014;39.006;2023-05-16T10:58:38;7.13;;;2.50;;
61635;SDS011;59438;45.014;39.006;2023-05-16T11:01:18;6.70;;;2.58;;
61635;SDS011;59438;45.014;39.006;2023-05-16T11:03:59;10.93;;;2.90;;
61635;SDS011;59438;45.014;39.006;2023-05-16T11:06:28;8.13;;;3.08;;
61635;SDS011;59438;45.014;39.006;2023-05-16T11:08:57;4.68;;;2.80;;
61635;SDS011;59438;45.014;39.006;2023-05-16T11:11:39;6.78;;;2.65;;
61635;SDS011;59438;45.014;39.006;2023-05-16T11:14:07;7.93;;;2.63;;
61635;SDS011;59438;45.014;39.006;2023-05-16T11:16:34;11.80;;;2.50;;
61635;SDS011;59438;45.014;39.006;2023-05-16T11:19:03;5.35;;;2.42;;
61635;SDS011;59438;45.014;39.006;2023-05-16T11:24:35;9.27;;;2.65;;
61635;SDS011;59438;45.014;39.006;2023-05-16T11:27:03;6.47;;;2.63;;
61635;SDS011;59438;45.014;39.006;2023-05-16T11:29:30;10.00;;;2.70;;
61635;SDS011;59438;45.014;39.006;2023-05-16T11:31:57;5.10;;;2.40;;
61635;SDS011;59438;45.014;39.006;2023-05-16T11:34:24;4.97;;;2.47;;
61635;SDS011;59438;45.014;39.006;2023-05-16T11:36:50;8.20;;;2.40;;
61635;SDS011;59438;45.014;39.006;2023-05-16T11:39:18;6.38;;;2.40;;
61635;SDS011;59438;45.014;39.006;2023-05-16T11:41:45;6.35;;;2.35;;
61635;SDS011;59438;45.014;39.006;2023-05-16T11:44:11;4.40;;;2.40;;
61635;SDS011;59438;45.014;39.006;2023-05-16T11:46:38;9.30;;;2.55;;
61635;SDS011;59438;45.014;39.006;2023-05-16T11:49:04;3.83;;;2.30;;
61635;SDS011;59438;45.014;39.006;2023-05-16T11:51:31;5.18;;;2.55;;
61635;SDS011;59438;45.014;39.006;2023-05-16T11:53:57;4.00;;;2.40;;
61635;SDS011;59438;45.014;39.006;2023-05-16T11:56:25;3.47;;;2.72;;
61635;SDS011;59438;45.014;39.006;2023-05-16T11:58:52;6.45;;;2.75;;
61635;SDS011;59438;45.014;39.006;2023-05-16T12:01:18;7.97;;;2.42;;
61635;SDS011;59438;45.014;39.006;2023-05-16T12:03:52;3.83;;;2.45;;
61635;SDS011;59438;45.014;39.006;2023-05-16T12:06:19;11.85;;;2.78;;
61635;SDS011;59438;45.014;39.006;2023-05-16T12:08:48;3.58;;;2.17;;
61635;SDS011;59438;45.014;39.006;2023-05-16T12:11:15;4.45;;;2.40;;
61635;SDS011;59438;45.014;39.006;2023-05-16T12:13:43;4.03;;;2.20;;
61635;SDS011;59438;45.014;39.006;2023-05-16T12:16:10;3.25;;;2.13;;
61635;SDS011;59438;45.014;39.006;2023-05-16T12:18:37;6.53;;;2.40;;
61635;SDS011;59438;45.014;39.006;2023-05-16T12:21:04;5.35;;;2.05;;
61635;SDS011;59438;45.014;39.006;2023-05-16T12:23:31;6.18;;;2.20;;
61635;SDS011;59438;45.014;39.006;2023-05-16T12:25:58;6.88;;;2.45;;
61635;SDS011;59438;45.014;39.006;2023-05-16T12:28:24;6.03;;;2.58;;
61635;SDS011;59438;45.014;39.006;2023-05-16T12:30:57;9.23;;;2.80;;
61635;SDS011;59438;45.014;39.006;2023-05-16T12:33:24;5.68;;;2.40;;
61635;SDS011;59438;45.014;39.006;2023-05-16T12:35:52;5.95;;;2.30;;
61635;SDS011;59438;45.014;39.006;2023-05-16T12:38:18;5.10;;;2.28;;
61635;SDS011;59438;45.014;39.006;2023-05-16T12:40:45;4.10;;;2.42;;
61635;SDS011;59438;45.014;39.006;2023-05-16T12:43:12;5.43;;;2.28;;
61635;SDS011;59438;45.014;39.006;2023-05-16T12:45:39;7.15;;;1.95;;
61635;SDS011;59438;45.014;39.006;2023-05-16T12:48:12;4.65;;;2.30;;
61635;SDS011;59438;45.014;39.006;2023-05-16T12:50:38;3.80;;;1.80;;
61635;SDS011;59438;45.014;39.006;2023-05-16T12:53:09;4.15;;;2.05;;
61635;SDS011;59438;45.014;39.006;2023-05-16T12:55:36;5.28;;;2.20;;
61635;SDS011;59438;45.014;39.006;2023-05-16T12:58:04;3.85;;;2.05;;
61635;SDS011;59438;45.014;39.006;2023-05-16T13:00:30;4.18;;;2.33;;
61635;SDS011;59438;45.014;39.006;2023-05-16T13:02:56;7.18;;;2.03;;
61635;SDS011;59438;45.014;39.006;2023-05-16T13:05:24;9.95;;;2.30;;
61635;SDS011;59438;45.014;39.006;2023-05-16T13:07:50;4.45;;;2.10;;
61635;SDS011;59438;45.014;39.006;2023-05-16T13:10:17;7.35;;;2.20;;
61635;SDS011;59438;45.014;39.006;2023-05-16T13:12:43;4.57;;;2.17;;
61635;SDS011;59438;45.014;39.006;2023-05-16T13:15:10;5.30;;;2.28;;
61635;SDS011;59438;45.014;39.006;2023-05-16T13:17:37;5.20;;;2.35;;
61635;SDS011;59438;45.014;39.006;2023-05-16T13:20:05;5.30;;;2.85;;
61635;SDS011;59438;45.014;39.006;2023-05-16T13:22:34;8.13;;;3.05;;
61635;SDS011;59438;45.014;39.006;2023-05-16T13:25:00;6.80;;;2.50;;
61635;SDS011;59438;45.014;39.006;2023-05-16T13:27:27;12.43;;;3.00;;
61635;SDS011;59438;45.014;39.006;2023-05-16T13:29:53;6.35;;;2.83;;
61635;SDS011;59438;45.014;39.006;2023-05-16T13:32:19;9.20;;;2.63;;
61635;SDS011;59438;45.014;39.006;2023-05-16T13:34:47;4.28;;;2.25;;
61635;SDS011;59438;45.014;39.006;2023-05-16T13:37:13;5.22;;;2.10;;
61635;SDS011;59438;45.014;39.006;2023-05-16T13:39:41;2.65;;;1.85;;
61635;SDS011;59438;45.014;39.006;2023-05-16T13:42:07;3.20;;;1.70;;
61635;SDS011;59438;45.014;39.006;2023-05-16T13:44:34;4.05;;;1.98;;
61635;SDS011;59438;45.014;39.006;2023-05-16T13:47:00;6.25;;;2.20;;
61635;SDS011;59438;45.014;39.006;2023-05-16T13:49:26;6.22;;;2.25;;
61635;SDS011;59438;45.014;39.006;2023-05-16T13:51:53;5.70;;;2.17;;
61635;SDS011;59438;45.014;39.006;2023-05-16T13:54:19;5.45;;;2.03;;
61635;SDS011;59438;45.014;39.006;2023-05-16T13:56:47;4.80;;;2.10;;
61635;SDS011;59438;45.014;39.006;2023-05-16T13:59:14;5.68;;;2.10;;
61635;SDS011;59438;45.014;39.006;2023-05-16T14:01:40;4.55;;;2.03;;
61635;SDS011;59438;45.014;39.006;2023-05-16T14:04:06;13.30;;;2.25;;
61635;SDS011;59438;45.014;39.006;2023-05-16T14:06:33;5.85;;;1.80;;
61635;SDS011;59438;45.014;39.006;2023-05-16T14:08:59;5.60;;;1.95;;
61635;SDS011;59438;45.014;39.006;2023-05-16T14:11:26;4.70;;;2.15;;
61635;SDS011;59438;45.014;39.006;2023-05-16T14:13:54;4.75;;;2.00;;
61635;SDS011;59438;45.014;39.006;2023-05-16T14:16:21;6.43;;;1.90;;
61635;SDS011;59438;45.014;39.006;2023-05-16T14:18:48;5.78;;;2.00;;
61635;SDS011;59438;45.014;39.006;2023-05-16T14:21:14;5.35;;;1.80;;
61635;SDS011;59438;45.014;39.006;2023-05-16T14:23:41;3.80;;;1.83;;
61635;SDS011;59438;45.014;39.006;2023-05-16T14:26:07;6.82;;;2.22;;
61635;SDS011;59438;45.014;39.006;2023-05-16T14:28:33;5.50;;;2.08;;
61635;SDS011;59438;45.014;39.006;2023-05-16T14:31:01;6.28;;;1.90;;
61635;SDS011;59438;45.014;39.006;2023-05-16T14:33:28;6.57;;;2.00;;